createdAt,value
2022-09-17T00:04:08.898Z,2.33
2022-09-17T00:09:28.831Z,2.33
2022-09-17T00:14:48.950Z,2.20
2022-09-17T00:20:09.096Z,2.13
2022-09-17T00:25:29.176Z,2.10
2022-09-17T00:30:49.207Z,2.40
2022-09-17T00:36:09.401Z,2.30
2022-09-17T00:41:29.418Z,2.23
2022-09-17T00:46:49.583Z,1.90
2022-09-17T00:52:09.637Z,2.50
2022-09-17T00:57:29.729Z,1.93
2022-09-17T01:02:49.916Z,2.00
2022-09-17T01:08:10.052Z,2.50
2022-09-17T01:13:30.181Z,2.10
2022-09-17T01:18:50.353Z,2.50
2022-09-17T01:24:10.393Z,1.73
2022-09-17T01:29:30.534Z,1.80
2022-09-17T01:34:50.512Z,1.77
2022-09-17T01:40:10.732Z,2.57
2022-09-17T01:45:30.800Z,2.10
2022-09-17T01:50:51.010Z,1.73
2022-09-17T01:56:11.143Z,1.87
2022-09-17T02:01:31.399Z,1.90
2022-09-17T02:06:51.418Z,1.87
2022-09-17T02:12:11.580Z,2.30
2022-09-17T02:17:31.639Z,1.90
2022-09-17T02:22:51.846Z,1.80
2022-09-17T02:28:11.981Z,1.50
2022-09-17T02:33:32.243Z,1.90
2022-09-17T02:38:52.432Z,1.73
2022-09-17T02:44:12.589Z,2.13
2022-09-17T02:49:32.645Z,1.80
2022-09-17T02:54:52.849Z,1.63
2022-09-17T03:00:12.947Z,2.30
2022-09-17T03:05:33.103Z,1.80
2022-09-17T03:10:53.220Z,2.00
2022-09-17T03:16:13.548Z,1.97
2022-09-17T03:21:33.650Z,1.70
2022-09-17T03:26:53.818Z,1.83
2022-09-17T03:32:14.000Z,1.83
2022-09-17T03:37:34.209Z,1.83
2022-09-17T03:42:54.316Z,2.10
2022-09-17T03:48:14.434Z,1.50
2022-09-17T03:53:34.479Z,1.70
2022-09-17T03:58:54.589Z,1.50
2022-09-17T04:04:14.746Z,2.10
2022-09-17T04:09:35.402Z,1.67
2022-09-17T04:14:55.357Z,1.70
2022-09-17T04:20:15.522Z,1.60
2022-09-17T04:25:35.551Z,1.40
2022-09-17T04:30:55.672Z,1.37
2022-09-17T04:36:15.748Z,1.70
2022-09-17T04:41:35.835Z,2.70
2022-09-17T04:46:56.156Z,1.40
2022-09-17T04:52:16.264Z,1.67
2022-09-17T04:57:36.295Z,1.23
2022-09-17T05:02:56.348Z,1.83
2022-09-17T05:08:16.479Z,1.50
2022-09-17T05:13:36.551Z,1.70
2022-09-17T05:18:56.605Z,1.37
2022-09-17T05:24:16.812Z,1.97
2022-09-17T05:29:36.816Z,1.33
2022-09-17T05:34:56.910Z,1.60
2022-09-17T05:40:17.147Z,1.70
2022-09-17T05:45:37.223Z,1.80
2022-09-17T05:50:57.420Z,1.70
2022-09-17T05:56:17.483Z,1.50
2022-09-17T06:01:37.632Z,1.87
2022-09-17T06:06:57.629Z,1.77
2022-09-17T06:12:17.780Z,1.97
2022-09-17T06:17:41.056Z,1.90
2022-09-17T06:23:01.118Z,1.73
2022-09-17T06:28:21.146Z,1.30
2022-09-17T06:33:41.498Z,1.57
2022-09-17T06:39:01.628Z,1.50
2022-09-17T06:44:21.891Z,1.60
2022-09-17T06:49:41.939Z,1.40
2022-09-17T06:55:02.172Z,1.37
2022-09-17T07:00:22.157Z,1.90
2022-09-17T07:05:42.323Z,1.60
2022-09-17T07:11:02.375Z,1.70
2022-09-17T07:16:22.676Z,1.50
2022-09-17T07:21:42.718Z,1.73
2022-09-17T07:27:02.918Z,1.43
2022-09-17T07:32:22.950Z,1.80
2022-09-17T07:37:43.240Z,1.80
2022-09-17T07:43:03.195Z,1.60
2022-09-17T07:48:24.539Z,2.70
2022-09-17T07:53:44.486Z,1.73
2022-09-17T07:59:04.824Z,1.17
2022-09-17T08:04:24.977Z,1.33
2022-09-17T08:09:45.060Z,1.50
2022-09-17T08:15:05.190Z,1.40
2022-09-17T08:20:25.298Z,1.40
2022-09-17T08:25:45.256Z,1.40
2022-09-17T08:31:05.521Z,1.20
2022-09-17T08:36:25.523Z,1.57
2022-09-17T08:41:45.562Z,1.20
2022-09-17T08:47:05.662Z,1.33
2022-09-17T08:52:25.914Z,1.40
2022-09-17T08:57:46.076Z,1.50
2022-09-17T09:03:06.322Z,1.27
2022-09-17T09:08:26.396Z,1.57
2022-09-17T09:13:46.585Z,1.10
2022-09-17T09:19:10.232Z,1.27
2022-09-17T09:24:32.960Z,1.30
2022-09-17T09:29:53.020Z,1.20
2022-09-17T09:35:13.137Z,1.47
2022-09-17T09:40:33.384Z,1.20
2022-09-17T09:45:53.524Z,1.50
2022-09-17T09:51:13.656Z,1.20
2022-09-17T09:56:33.775Z,1.20
2022-09-17T10:01:53.979Z,1.13
2022-09-17T10:07:14.010Z,1.40
2022-09-17T10:12:34.147Z,1.03
2022-09-17T10:17:54.372Z,1.37
2022-09-17T10:23:14.547Z,1.17
2022-09-17T10:28:34.761Z,1.20
2022-09-17T10:33:54.786Z,1.23
2022-09-17T10:39:14.775Z,1.40
2022-09-17T10:44:35.010Z,1.20
2022-09-17T10:49:55.255Z,1.27
2022-09-17T10:55:15.276Z,1.00
2022-09-17T11:00:35.604Z,0.90
2022-09-17T11:05:55.687Z,1.17
2022-09-17T11:11:15.829Z,1.13
2022-09-17T11:16:36.016Z,1.27
2022-09-17T11:21:56.173Z,1.13
2022-09-17T11:27:16.299Z,1.03
2022-09-17T11:32:36.553Z,1.30
2022-09-17T11:37:59.778Z,1.30
2022-09-17T11:43:20.172Z,1.27
2022-09-17T11:48:40.277Z,1.00
2022-09-17T11:54:00.484Z,1.00
2022-09-17T11:59:20.539Z,1.00
2022-09-17T12:04:40.691Z,1.30
2022-09-17T12:10:00.843Z,1.30
2022-09-17T12:15:21.083Z,1.10
2022-09-17T12:20:41.251Z,1.17
2022-09-17T12:26:01.301Z,1.03
2022-09-17T12:31:21.574Z,1.07
2022-09-17T12:36:41.704Z,1.10
2022-09-17T12:42:01.773Z,1.20
2022-09-17T12:47:21.814Z,1.00
2022-09-17T12:52:41.896Z,0.90
2022-09-17T12:58:02.013Z,1.07
2022-09-17T13:03:22.072Z,1.23
2022-09-17T13:08:42.166Z,1.00
2022-09-17T13:14:02.300Z,1.10
2022-09-17T13:19:23.197Z,1.00
2022-09-17T13:24:47.084Z,1.20
2022-09-17T13:30:07.415Z,1.00
2022-09-17T13:35:27.612Z,1.17
2022-09-17T13:40:47.739Z,0.97
2022-09-17T13:46:07.975Z,1.43
2022-09-17T13:51:28.038Z,1.60
2022-09-17T13:56:48.167Z,1.33
2022-09-17T14:02:08.256Z,1.23
2022-09-17T14:07:28.206Z,1.50
2022-09-17T14:12:48.415Z,1.87
2022-09-17T14:18:08.528Z,1.27
2022-09-17T14:23:28.782Z,1.30
2022-09-17T14:28:48.959Z,1.23
2022-09-17T14:34:09.211Z,1.40
2022-09-17T14:39:29.291Z,1.00
2022-09-17T14:44:49.345Z,1.30
2022-09-17T14:50:09.366Z,1.00
2022-09-17T14:55:29.559Z,1.07
2022-09-17T15:00:49.624Z,1.17
2022-09-17T15:06:09.983Z,1.20
2022-09-17T15:11:30.063Z,1.30
2022-09-17T15:16:50.307Z,1.00
2022-09-17T15:22:10.435Z,1.30
2022-09-17T15:27:30.515Z,1.10
2022-09-17T15:32:50.726Z,1.23
2022-09-17T15:38:22.144Z,1.50
2022-09-17T15:43:43.439Z,1.10
2022-09-17T15:49:03.754Z,1.20
2022-09-17T15:54:23.879Z,1.10
2022-09-17T15:59:44.015Z,0.90
2022-09-17T16:05:04.019Z,1.13
2022-09-17T16:10:24.157Z,1.10
2022-09-17T16:15:44.477Z,1.30
2022-09-17T16:21:04.584Z,0.83
2022-09-17T16:26:24.697Z,1.10
2022-09-17T16:31:45.012Z,1.10
2022-09-17T16:37:05.027Z,0.90
2022-09-17T16:42:25.103Z,1.13
2022-09-17T16:47:45.406Z,1.43
2022-09-17T16:53:05.688Z,1.00
2022-09-17T16:58:25.693Z,1.20
2022-09-17T17:03:45.768Z,1.40
2022-09-17T17:09:06.072Z,1.00
2022-09-17T17:14:26.526Z,1.07
2022-09-17T17:19:46.787Z,1.10
2022-09-17T17:25:06.843Z,1.10
2022-09-17T17:30:26.998Z,1.20
2022-09-17T17:35:47.610Z,1.20
2022-09-17T17:41:07.871Z,1.10
2022-09-17T17:46:28.196Z,1.50
2022-09-17T17:51:48.338Z,1.33
2022-09-17T17:57:08.440Z,0.90
2022-09-17T18:02:28.709Z,1.00
2022-09-17T18:07:48.728Z,1.10
2022-09-17T18:13:08.993Z,1.00
2022-09-17T18:18:29.049Z,1.30
2022-09-17T18:23:49.107Z,1.20
2022-09-17T18:29:09.190Z,1.17
2022-09-17T18:34:29.464Z,1.00
2022-09-17T18:40:04.936Z,1.03
2022-09-17T18:45:24.920Z,1.20
2022-09-17T18:50:45.044Z,1.10
2022-09-17T18:56:05.101Z,0.90
2022-09-17T19:01:25.288Z,0.90
2022-09-17T19:06:45.388Z,1.20
2022-09-17T19:12:05.403Z,1.10
2022-09-17T19:17:25.448Z,1.00
2022-09-17T19:22:45.483Z,1.30
2022-09-17T19:28:05.682Z,1.30
2022-09-17T19:33:25.827Z,1.00
2022-09-17T19:38:46.144Z,1.10
2022-09-17T19:44:06.272Z,1.23
2022-09-17T19:49:26.528Z,1.00
2022-09-17T19:54:46.600Z,1.20
2022-09-17T20:00:06.931Z,1.23
2022-09-17T20:05:26.947Z,1.10
2022-09-17T20:10:47.179Z,1.40
2022-09-17T20:16:07.711Z,0.90
2022-09-17T20:21:27.779Z,1.10
2022-09-17T20:26:47.900Z,1.00
2022-09-17T20:32:08.187Z,1.30
2022-09-17T20:38:01.667Z,1.30
2022-09-17T20:43:08.060Z,1.00
2022-09-17T20:48:28.102Z,1.20
2022-09-17T20:53:48.263Z,1.20
2022-09-17T20:59:08.505Z,1.03
2022-09-17T21:04:28.732Z,0.97
2022-09-17T21:09:48.720Z,1.10
2022-09-17T21:15:08.930Z,1.10
2022-09-17T21:20:28.960Z,1.07
2022-09-17T21:25:49.162Z,1.10
2022-09-17T21:31:09.492Z,0.90
2022-09-17T21:36:29.447Z,1.00
2022-09-17T21:41:49.699Z,1.30
2022-09-17T21:47:12.434Z,1.10
2022-09-17T21:52:32.726Z,1.20
2022-09-17T21:57:52.920Z,1.03
2022-09-17T22:03:12.965Z,1.10
2022-09-17T22:08:33.280Z,1.10
2022-09-17T22:13:53.323Z,0.97
2022-09-17T22:19:13.571Z,1.07
2022-09-17T22:24:33.576Z,1.10
2022-09-17T22:29:53.705Z,0.90
2022-09-17T22:35:13.769Z,1.20
2022-09-17T22:40:34.087Z,1.00
2022-09-17T22:45:54.367Z,1.17
2022-09-17T22:51:14.592Z,0.93
2022-09-17T22:56:34.716Z,0.90
2022-09-17T23:01:54.959Z,0.90
2022-09-17T23:07:14.924Z,1.13
2022-09-17T23:12:35.045Z,1.10
2022-09-17T23:17:55.098Z,0.80
2022-09-17T23:23:15.303Z,0.87
2022-09-17T23:28:35.365Z,1.00
2022-09-17T23:33:55.532Z,0.93
2022-09-17T23:39:15.709Z,0.90
2022-09-17T23:44:35.968Z,1.00
2022-09-17T23:49:56.022Z,1.00
2022-09-17T23:55:16.305Z,0.90
